createdAt,value
2023-03-30T00:01:17.253Z,100234.13
2023-03-30T00:03:45.433Z,100231.94
2023-03-30T00:06:14.775Z,100238.31
2023-03-30T00:08:41.403Z,100250.22
2023-03-30T00:11:11.863Z,100237.25
2023-03-30T00:13:38.680Z,100253.22
2023-03-30T00:16:06.950Z,100245.41
2023-03-30T00:18:34.465Z,100232.09
2023-03-30T00:21:02.948Z,100238.34
2023-03-30T00:23:30.147Z,100239.94
2023-03-30T00:25:57.092Z,100231.53
2023-03-30T00:28:25.018Z,100220.09
2023-03-30T00:30:53.471Z,100214.50
2023-03-30T00:33:27.601Z,100208.00
2023-03-30T00:36:00.517Z,100211.03
2023-03-30T00:38:27.258Z,100203.25
2023-03-30T00:40:56.387Z,100199.03
2023-03-30T00:43:24.188Z,100200.09
2023-03-30T00:45:51.903Z,100208.16
2023-03-30T00:48:40.600Z,100207.81
2023-03-30T00:51:10.330Z,100203.13
2023-03-30T00:53:41.396Z,100211.66
2023-03-30T00:56:11.061Z,100207.59
2023-03-30T00:58:39.334Z,100200.47
2023-03-30T01:01:09.123Z,100199.84
2023-03-30T01:06:21.987Z,100212.13
2023-03-30T01:08:49.126Z,100201.53
2023-03-30T01:11:15.711Z,100205.22
2023-03-30T01:13:45.281Z,100190.91
2023-03-30T01:16:30.252Z,100188.16
2023-03-30T01:19:34.872Z,100210.84
2023-03-30T01:22:14.833Z,100212.88
2023-03-30T01:25:03.285Z,100214.41
2023-03-30T01:27:48.318Z,100221.19
2023-03-30T01:30:36.263Z,100239.06
2023-03-30T01:33:21.129Z,100225.66
2023-03-30T01:36:03.378Z,100231.59
2023-03-30T01:38:29.788Z,100236.16
2023-03-30T01:41:13.315Z,100208.00
2023-03-30T01:43:48.973Z,100191.47
2023-03-30T01:46:30.841Z,100149.16
2023-03-30T01:49:03.277Z,100095.31
2023-03-30T01:51:35.716Z,100154.22
2023-03-30T01:54:14.046Z,100187.91
2023-03-30T01:56:56.870Z,100186.88
2023-03-30T01:59:31.495Z,100196.84
2023-03-30T02:02:02.690Z,100176.28
2023-03-30T02:04:32.804Z,100162.69
2023-03-30T02:07:06.034Z,100165.41
2023-03-30T02:09:36.152Z,100152.84
2023-03-30T02:12:04.230Z,100135.84
2023-03-30T02:14:33.632Z,100165.38
2023-03-30T02:17:06.622Z,100164.34
2023-03-30T02:19:37.905Z,100149.38
2023-03-30T02:22:06.328Z,100149.00
2023-03-30T02:24:33.476Z,100145.28
2023-03-30T02:27:04.341Z,100130.97
2023-03-30T02:29:33.560Z,100144.94
2023-03-30T02:32:00.528Z,100160.03
2023-03-30T02:35:00.506Z,100146.78
2023-03-30T02:38:01.913Z,100137.69
2023-03-30T02:40:55.329Z,100151.34
2023-03-30T02:43:44.468Z,100140.88
2023-03-30T02:46:37.993Z,100116.75
2023-03-30T02:49:31.521Z,100097.06
2023-03-30T02:52:17.474Z,100040.69
2023-03-30T02:54:50.818Z,99997.13
2023-03-30T02:57:23.378Z,100043.28
2023-03-30T02:59:57.388Z,100069.66
2023-03-30T03:02:33.914Z,100054.94
2023-03-30T03:05:04.240Z,100056.59
2023-03-30T03:07:33.826Z,100047.19
2023-03-30T03:10:00.787Z,100056.31
2023-03-30T03:12:28.813Z,100066.03
2023-03-30T03:14:55.283Z,100057.72
2023-03-30T03:17:22.436Z,100050.75
2023-03-30T03:19:50.004Z,100053.78
2023-03-30T03:22:17.160Z,100065.94
2023-03-30T03:24:44.807Z,100059.00
2023-03-30T03:27:11.813Z,100044.81
2023-03-30T03:29:38.322Z,100046.22
2023-03-30T03:32:04.995Z,100047.56
2023-03-30T03:34:31.571Z,100036.44
2023-03-30T03:36:58.721Z,100040.66
2023-03-30T03:39:25.889Z,100041.22
2023-03-30T03:41:52.607Z,100013.44
2023-03-30T03:44:19.045Z,100020.09
2023-03-30T03:46:45.720Z,100032.59
2023-03-30T03:49:12.162Z,100038.13
2023-03-30T03:51:38.943Z,100042.00
2023-03-30T03:54:05.623Z,100041.16
2023-03-30T03:56:32.142Z,100054.78
2023-03-30T03:58:58.540Z,100045.88
2023-03-30T04:01:24.937Z,100035.31
2023-03-30T04:03:51.328Z,100021.94
2023-03-30T04:06:17.782Z,100024.09
2023-03-30T04:08:44.199Z,100013.47
2023-03-30T04:11:12.081Z,100013.41
2023-03-30T04:13:39.731Z,100013.13
2023-03-30T04:16:07.351Z,100003.66
2023-03-30T04:18:34.647Z,99998.94
2023-03-30T04:21:03.145Z,100012.50
2023-03-30T04:23:33.809Z,100022.69
2023-03-30T04:26:09.105Z,100015.38
2023-03-30T04:28:35.973Z,100020.38
2023-03-30T04:31:05.737Z,100015.63
2023-03-30T04:33:38.072Z,100019.75
2023-03-30T04:36:05.458Z,100020.25
2023-03-30T04:38:31.889Z,100015.84
2023-03-30T04:41:00.725Z,100004.75
2023-03-30T04:43:27.239Z,100010.78
2023-03-30T04:45:55.689Z,100023.56
2023-03-30T04:48:23.718Z,100028.84
2023-03-30T04:50:51.465Z,100026.91
2023-03-30T04:53:18.650Z,100031.34
2023-03-30T04:55:49.761Z,100023.03
2023-03-30T04:58:16.336Z,100023.88
2023-03-30T05:00:42.988Z,100011.94
2023-03-30T05:03:09.531Z,100014.16
2023-03-30T05:05:36.578Z,100010.28
2023-03-30T05:08:03.040Z,100009.16
2023-03-30T05:10:29.509Z,100007.78
2023-03-30T05:12:56.677Z,100005.25
2023-03-30T05:15:23.153Z,100001.09
2023-03-30T05:17:49.643Z,100003.53
2023-03-30T05:20:16.315Z,100005.75
2023-03-30T05:22:42.714Z,100015.16
2023-03-30T05:25:10.004Z,100016.00
2023-03-30T05:27:36.502Z,100012.91
2023-03-30T05:30:04.105Z,100023.38
2023-03-30T05:32:30.531Z,100027.78
2023-03-30T05:34:57.580Z,100016.09
2023-03-30T05:37:24.103Z,100015.53
2023-03-30T05:39:50.572Z,100020.44
2023-03-30T05:42:17.124Z,100040.94
2023-03-30T05:44:43.526Z,100039.78
2023-03-30T05:47:10.068Z,100046.38
2023-03-30T05:49:36.554Z,100048.53
2023-03-30T05:52:03.671Z,100037.47
2023-03-30T05:54:30.158Z,100042.69
2023-03-30T05:56:56.701Z,100025.22
2023-03-30T05:59:23.225Z,100026.06
2023-03-30T06:01:49.775Z,100036.31
2023-03-30T06:04:16.383Z,100034.13
2023-03-30T06:06:43.430Z,100029.44
2023-03-30T06:09:10.318Z,100040.22
2023-03-30T06:11:36.782Z,100034.13
2023-03-30T06:14:03.250Z,100041.84
2023-03-30T06:16:29.829Z,100030.28
2023-03-30T06:18:56.470Z,100035.81
2023-03-30T06:21:22.979Z,100043.00
2023-03-30T06:23:49.424Z,100048.00
2023-03-30T06:26:15.841Z,100046.91
2023-03-30T06:28:42.274Z,100058.84
2023-03-30T06:31:10.151Z,100079.06
2023-03-30T06:33:38.323Z,100077.97
2023-03-30T06:36:11.477Z,100066.41
2023-03-30T06:38:38.026Z,100077.00
2023-03-30T06:41:08.259Z,100082.06
2023-03-30T06:43:34.720Z,100090.50
2023-03-30T06:46:01.550Z,100086.13
2023-03-30T06:48:28.657Z,100086.22
2023-03-30T06:50:55.189Z,100097.69
2023-03-30T06:53:23.542Z,100090.00
2023-03-30T06:55:55.069Z,100089.19
2023-03-30T06:58:21.836Z,100088.41
2023-03-30T07:00:48.293Z,100090.38
2023-03-30T07:03:18.651Z,100093.78
2023-03-30T07:05:49.536Z,100075.50
2023-03-30T07:08:16.525Z,100079.38
2023-03-30T07:10:43.319Z,100084.97
2023-03-30T07:13:10.147Z,100073.94
2023-03-30T07:15:36.804Z,100065.03
2023-03-30T07:18:03.866Z,100070.63
2023-03-30T07:20:30.449Z,100082.88
2023-03-30T07:22:56.851Z,100073.94
2023-03-30T07:25:23.250Z,100057.94
2023-03-30T07:27:49.684Z,100073.50
2023-03-30T07:30:21.760Z,100057.41
2023-03-30T07:32:50.463Z,100063.31
2023-03-30T07:35:17.240Z,100056.97
2023-03-30T07:37:43.721Z,100062.56
2023-03-30T07:40:11.622Z,100053.16
2023-03-30T07:42:38.565Z,100074.31
2023-03-30T07:45:05.473Z,100081.31
2023-03-30T07:47:31.923Z,100079.91
2023-03-30T07:49:58.522Z,100079.38
2023-03-30T07:52:25.286Z,100077.72
2023-03-30T07:54:51.993Z,100065.53
2023-03-30T07:57:18.542Z,100064.97
2023-03-30T07:59:44.956Z,100069.69
2023-03-30T08:02:12.463Z,100061.13
2023-03-30T08:04:39.089Z,100084.75
2023-03-30T08:07:05.566Z,100067.28
2023-03-30T08:09:32.182Z,100065.63
2023-03-30T08:11:58.597Z,100065.59
2023-03-30T08:14:27.227Z,100065.59
2023-03-30T08:16:54.188Z,100072.25
2023-03-30T08:19:21.594Z,100080.63
2023-03-30T08:21:48.004Z,100083.13
2023-03-30T08:24:14.458Z,100087.03
2023-03-30T08:26:42.095Z,100079.78
2023-03-30T08:29:09.378Z,100089.03
2023-03-30T08:31:37.473Z,100092.66
2023-03-30T08:34:04.618Z,100087.06
2023-03-30T08:36:31.683Z,100078.16
2023-03-30T08:38:58.222Z,100087.06
2023-03-30T08:41:24.604Z,100093.47
2023-03-30T08:43:57.379Z,100093.75
2023-03-30T08:46:24.901Z,100091.91
2023-03-30T08:48:53.344Z,100094.94
2023-03-30T08:51:22.866Z,100110.16
2023-03-30T08:53:54.119Z,100077.47
2023-03-30T08:56:26.180Z,100091.34
2023-03-30T08:59:25.280Z,100090.81
2023-03-30T09:02:00.229Z,100089.16
2023-03-30T09:04:57.282Z,100090.31
2023-03-30T09:07:27.442Z,100094.22
2023-03-30T09:09:55.384Z,100095.91
2023-03-30T09:12:44.524Z,100090.34
2023-03-30T09:15:16.850Z,100077.28
2023-03-30T09:17:48.890Z,100068.66
2023-03-30T09:20:22.572Z,100080.34
2023-03-30T09:22:50.968Z,100081.47
2023-03-30T09:25:28.449Z,100100.94
2023-03-30T09:28:25.698Z,100100.97
2023-03-30T09:30:57.070Z,100088.72
2023-03-30T09:33:35.585Z,100098.72
2023-03-30T09:36:22.856Z,100112.91
2023-03-30T09:38:50.286Z,100093.16
2023-03-30T09:41:31.956Z,100098.19
2023-03-30T09:44:00.155Z,100092.63
2023-03-30T09:46:26.574Z,100111.84
2023-03-30T09:48:53.138Z,100104.28
2023-03-30T09:51:22.012Z,100112.94
2023-03-30T09:53:52.230Z,100124.34
2023-03-30T09:56:27.276Z,100121.56
2023-03-30T09:58:54.709Z,100117.38
2023-03-30T10:01:22.011Z,100111.03
2023-03-30T10:04:11.580Z,100103.22
2023-03-30T10:06:46.592Z,100107.38
2023-03-30T10:09:13.480Z,100104.84
2023-03-30T10:11:45.593Z,100101.72
2023-03-30T10:14:28.986Z,100107.28
2023-03-30T10:16:56.851Z,100113.75
2023-03-30T10:19:24.609Z,100125.72
2023-03-30T10:21:57.528Z,100139.13
2023-03-30T10:24:31.573Z,100142.75
2023-03-30T10:26:59.758Z,100164.72
2023-03-30T10:29:28.249Z,100188.59
2023-03-30T10:32:10.048Z,100253.19
2023-03-30T10:34:41.107Z,100276.25
2023-03-30T10:37:13.730Z,100255.16
2023-03-30T10:39:43.244Z,100227.63
2023-03-30T10:42:16.128Z,100240.38
2023-03-30T10:44:55.419Z,100262.00
2023-03-30T10:47:39.211Z,100245.72
2023-03-30T10:50:08.607Z,100257.75
2023-03-30T10:53:12.542Z,100247.09
2023-03-30T10:55:41.989Z,100259.25
2023-03-30T10:58:41.647Z,100261.63
2023-03-30T11:01:26.947Z,100280.44
2023-03-30T11:04:20.443Z,100289.06
2023-03-30T11:06:52.988Z,100290.47
2023-03-30T11:09:24.508Z,100285.41
2023-03-30T11:12:15.664Z,100285.81
2023-03-30T11:15:09.724Z,100285.69
2023-03-30T11:17:48.675Z,100277.63
2023-03-30T11:20:27.350Z,100276.91
2023-03-30T11:23:04.672Z,100271.72
2023-03-30T11:25:39.455Z,100276.03
2023-03-30T11:28:15.954Z,100281.75
2023-03-30T11:30:43.847Z,100275.81
2023-03-30T11:33:36.488Z,100279.03
2023-03-30T11:36:18.903Z,100275.59
2023-03-30T11:39:28.980Z,100293.41
2023-03-30T11:42:05.017Z,100272.69
2023-03-30T11:44:32.258Z,100262.78
2023-03-30T11:47:22.059Z,100270.75
2023-03-30T11:50:13.638Z,100268.16
2023-03-30T11:52:48.928Z,100277.06
2023-03-30T11:55:23.838Z,100285.88
2023-03-30T11:58:07.680Z,100286.63
2023-03-30T12:01:00.557Z,100289.53
2023-03-30T12:03:44.613Z,100280.00
2023-03-30T12:06:27.042Z,100292.09
2023-03-30T12:09:12.084Z,100288.16
2023-03-30T12:11:45.478Z,100276.63
2023-03-30T12:14:33.274Z,100290.81
2023-03-30T12:17:09.340Z,100282.22
2023-03-30T12:19:55.455Z,100283.25
2023-03-30T12:22:23.111Z,100285.63
2023-03-30T12:25:14.933Z,100279.00
2023-03-30T12:28:09.065Z,100274.22
2023-03-30T12:30:53.083Z,100260.41
2023-03-30T12:33:25.574Z,100266.56
2023-03-30T12:35:57.553Z,100261.81
2023-03-30T12:38:27.466Z,100270.97
2023-03-30T12:41:25.824Z,100267.09
2023-03-30T12:44:18.254Z,100265.19
2023-03-30T12:46:50.681Z,100259.94
2023-03-30T12:49:28.911Z,100259.41
2023-03-30T12:52:14.147Z,100255.25
2023-03-30T12:55:02.012Z,100252.50
2023-03-30T12:57:42.675Z,100227.53
2023-03-30T13:00:36.406Z,100209.97
2023-03-30T13:03:32.968Z,100216.19
2023-03-30T13:06:01.852Z,100202.88
2023-03-30T13:08:41.048Z,100195.38
2023-03-30T13:11:09.841Z,100186.41
2023-03-30T13:14:11.604Z,100183.81
2023-03-30T13:16:53.370Z,100177.50
2023-03-30T13:19:32.104Z,100181.22
2023-03-30T13:22:04.642Z,100181.22
2023-03-30T13:24:31.082Z,100187.03
2023-03-30T13:27:19.176Z,100194.66
2023-03-30T13:30:03.805Z,100197.44
2023-03-30T13:32:33.005Z,100201.19
2023-03-30T13:35:26.648Z,100192.19
2023-03-30T13:38:24.080Z,100216.75
2023-03-30T13:41:04.703Z,100212.34
2023-03-30T13:43:42.752Z,100225.19
2023-03-30T13:46:25.874Z,100226.53
2023-03-30T13:49:05.622Z,100204.56
2023-03-30T13:51:32.695Z,100204.84
2023-03-30T13:54:03.520Z,100225.44
2023-03-30T13:56:33.408Z,100237.41
2023-03-30T13:59:06.686Z,100212.25
2023-03-30T14:01:35.278Z,100221.13
2023-03-30T14:04:05.846Z,100216.41
2023-03-30T14:06:36.665Z,100214.72
2023-03-30T14:09:05.772Z,100228.13
2023-03-30T14:11:36.141Z,100213.88
2023-03-30T14:14:04.800Z,100221.19
2023-03-30T14:16:37.176Z,100208.44
2023-03-30T14:19:28.552Z,100204.59
2023-03-30T14:22:21.521Z,100191.19
2023-03-30T14:25:03.482Z,100200.06
2023-03-30T14:27:38.479Z,100181.03
2023-03-30T14:30:23.967Z,100183.59
2023-03-30T14:33:11.382Z,100173.59
2023-03-30T14:35:52.949Z,100154.44
2023-03-30T14:38:30.238Z,100148.56
2023-03-30T14:40:57.130Z,100147.44
2023-03-30T14:43:28.842Z,100168.22
2023-03-30T14:45:58.292Z,100158.53
2023-03-30T14:48:32.929Z,100153.53
2023-03-30T14:51:01.762Z,100155.56
2023-03-30T14:53:30.179Z,100178.16
2023-03-30T14:56:00.645Z,100161.13
2023-03-30T14:58:31.591Z,100163.75
2023-03-30T15:01:01.102Z,100171.81
2023-03-30T15:03:34.354Z,100158.41
2023-03-30T15:06:03.161Z,100155.19
2023-03-30T15:08:38.509Z,100165.47
2023-03-30T15:11:15.787Z,100157.25
2023-03-30T15:13:47.459Z,100149.63
2023-03-30T15:16:21.978Z,100153.88
2023-03-30T15:18:49.663Z,100167.09
2023-03-30T15:21:16.443Z,100162.41
2023-03-30T15:23:45.687Z,100197.28
2023-03-30T15:26:13.143Z,100196.72
2023-03-30T15:28:49.360Z,100201.34
2023-03-30T15:31:16.527Z,100197.09
2023-03-30T15:33:52.077Z,100204.88
2023-03-30T15:36:26.426Z,100181.25
2023-03-30T15:38:56.212Z,100178.34
2023-03-30T15:41:42.604Z,100181.84
2023-03-30T15:44:11.813Z,100162.44
2023-03-30T15:46:38.423Z,100185.28
2023-03-30T15:49:05.810Z,100176.72
2023-03-30T15:51:38.830Z,100177.09
2023-03-30T15:54:14.258Z,100185.03
2023-03-30T15:57:09.788Z,100167.38
2023-03-30T15:59:39.510Z,100171.94
2023-03-30T16:02:16.289Z,100182.69
2023-03-30T16:04:43.261Z,100175.78
2023-03-30T16:07:29.391Z,100171.81
2023-03-30T16:09:55.845Z,100159.28
2023-03-30T16:12:26.020Z,100164.63
2023-03-30T16:14:52.989Z,100160.56
2023-03-30T16:17:19.933Z,100161.03
2023-03-30T16:19:46.646Z,100155.75
2023-03-30T16:22:14.542Z,100162.72
2023-03-30T16:24:42.115Z,100171.97
2023-03-30T16:27:11.475Z,100176.13
2023-03-30T16:29:38.245Z,100150.53
2023-03-30T16:32:05.058Z,100168.06
2023-03-30T16:34:31.655Z,100170.59
2023-03-30T16:36:58.073Z,100178.69
2023-03-30T16:39:27.554Z,100171.97
2023-03-30T16:41:55.220Z,100173.09
2023-03-30T16:44:24.408Z,100180.03
2023-03-30T16:46:51.594Z,100181.16
2023-03-30T16:49:24.339Z,100178.91
2023-03-30T16:51:54.556Z,100174.75
2023-03-30T16:54:31.102Z,100178.34
2023-03-30T16:57:00.479Z,100166.09
2023-03-30T16:59:30.219Z,100166.09
2023-03-30T17:01:57.224Z,100154.31
2023-03-30T17:04:23.784Z,100179.44
2023-03-30T17:06:51.036Z,100184.50
2023-03-30T17:09:19.279Z,100192.03
2023-03-30T17:11:47.678Z,100188.66
2023-03-30T17:14:14.558Z,100198.13
2023-03-30T17:16:41.197Z,100196.16
2023-03-30T17:19:12.323Z,100233.81
2023-03-30T17:21:40.094Z,100201.78
2023-03-30T17:24:06.916Z,100211.81
2023-03-30T17:26:33.358Z,100214.59
2023-03-30T17:28:59.784Z,100213.47
2023-03-30T17:31:26.294Z,100200.09
2023-03-30T17:33:52.767Z,100199.81
2023-03-30T17:36:22.099Z,100214.31
2023-03-30T17:38:49.950Z,100215.16
2023-03-30T17:41:19.389Z,100218.41
2023-03-30T17:43:47.791Z,100226.97
2023-03-30T17:46:17.142Z,100224.09
2023-03-30T17:48:43.652Z,100221.00
2023-03-30T17:51:10.358Z,100224.19
2023-03-30T17:53:37.502Z,100228.19
2023-03-30T17:56:04.173Z,100232.00
2023-03-30T17:58:36.046Z,100231.56
2023-03-30T18:01:08.300Z,100221.75
2023-03-30T18:03:35.643Z,100220.88
2023-03-30T18:06:02.377Z,100221.94
2023-03-30T18:08:29.449Z,100224.94
2023-03-30T18:11:00.442Z,100228.41
2023-03-30T18:13:28.520Z,100232.75
2023-03-30T18:15:57.062Z,100240.09
2023-03-30T18:18:26.028Z,100248.09
2023-03-30T18:20:57.622Z,100257.41
2023-03-30T18:23:24.280Z,100258.00
2023-03-30T18:25:51.360Z,100246.00
2023-03-30T18:28:26.621Z,100256.25
2023-03-30T18:30:55.509Z,100252.38
2023-03-30T18:33:22.086Z,100252.44
2023-03-30T18:35:50.584Z,100254.88
2023-03-30T18:38:21.446Z,100243.44
2023-03-30T18:40:50.098Z,100239.19
2023-03-30T18:43:17.258Z,100248.34
2023-03-30T18:45:49.509Z,100251.63
2023-03-30T18:48:21.550Z,100258.28
2023-03-30T18:50:53.007Z,100258.19
2023-03-30T18:53:21.626Z,100244.59
2023-03-30T18:55:50.515Z,100255.38
2023-03-30T18:58:23.066Z,100250.97
2023-03-30T19:00:51.540Z,100253.81
2023-03-30T19:03:20.106Z,100252.72
2023-03-30T19:05:47.597Z,100248.03
2023-03-30T19:08:17.016Z,100248.50
2023-03-30T19:10:45.243Z,100242.16
2023-03-30T19:13:16.774Z,100239.06
2023-03-30T19:15:44.328Z,100245.81
2023-03-30T19:18:11.208Z,100253.88
2023-03-30T19:20:39.834Z,100241.38
2023-03-30T19:23:07.661Z,100242.47
2023-03-30T19:25:34.453Z,100242.47
2023-03-30T19:28:03.844Z,100242.94
2023-03-30T19:30:33.626Z,100238.16
2023-03-30T19:33:05.027Z,100240.34
2023-03-30T19:35:32.381Z,100252.19
2023-03-30T19:37:59.433Z,100244.41
2023-03-30T19:40:26.807Z,100233.88
2023-03-30T19:42:53.299Z,100233.97
2023-03-30T19:45:21.631Z,100230.59
2023-03-30T19:47:48.194Z,100231.34
2023-03-30T19:50:18.195Z,100232.78
2023-03-30T19:52:50.672Z,100222.28
2023-03-30T19:55:18.903Z,100226.75
2023-03-30T19:57:45.432Z,100222.28
2023-03-30T20:00:15.734Z,100219.84
2023-03-30T20:02:47.915Z,100224.22
2023-03-30T20:05:15.954Z,100221.19
2023-03-30T20:07:44.273Z,100219.50
2023-03-30T20:10:13.260Z,100227.25
2023-03-30T20:12:39.761Z,100226.94
2023-03-30T20:15:08.383Z,100219.38
2023-03-30T20:17:36.259Z,100221.63
2023-03-30T20:20:06.857Z,100222.41
2023-03-30T20:22:35.081Z,100223.22
2023-03-30T20:25:02.493Z,100218.28
2023-03-30T20:27:28.936Z,100219.38
2023-03-30T20:29:55.514Z,100219.91
2023-03-30T20:32:22.026Z,100220.34
2023-03-30T20:34:49.298Z,100204.22
2023-03-30T20:37:15.800Z,100207.19
2023-03-30T20:39:42.302Z,100206.00
2023-03-30T20:42:09.450Z,100221.09
2023-03-30T20:44:39.399Z,100226.03
2023-03-30T20:47:08.481Z,100207.16
2023-03-30T20:49:34.973Z,100211.13
2023-03-30T20:52:01.975Z,100200.28
2023-03-30T20:54:29.773Z,100192.25
2023-03-30T20:56:56.685Z,100197.13
2023-03-30T20:59:23.325Z,100188.81
2023-03-30T21:01:51.967Z,100176.63
2023-03-30T21:04:19.448Z,100177.16
2023-03-30T21:06:46.196Z,100178.25
2023-03-30T21:09:12.705Z,100181.03
2023-03-30T21:11:39.433Z,100191.50
2023-03-30T21:14:08.248Z,100184.56
2023-03-30T21:16:36.748Z,100192.00
2023-03-30T21:19:05.376Z,100192.53
2023-03-30T21:21:33.827Z,100191.06
2023-03-30T21:24:01.670Z,100183.03
2023-03-30T21:26:29.242Z,100168.59
2023-03-30T21:28:56.219Z,100162.50
2023-03-30T21:31:23.299Z,100155.78
2023-03-30T21:33:50.046Z,100153.53
2023-03-30T21:36:16.657Z,100152.38
2023-03-30T21:38:43.181Z,100135.16
2023-03-30T21:41:13.302Z,100134.59
2023-03-30T21:43:45.632Z,100124.03
2023-03-30T21:46:14.622Z,100120.66
2023-03-30T21:48:42.749Z,100125.34
2023-03-30T21:51:13.688Z,100133.94
2023-03-30T21:53:42.038Z,100127.22
2023-03-30T21:56:09.572Z,100129.41
2023-03-30T21:58:35.954Z,100126.66
2023-03-30T22:01:11.705Z,100133.25
2023-03-30T22:03:40.777Z,100126.56
2023-03-30T22:06:09.485Z,100128.72
2023-03-30T22:08:36.050Z,100125.38
2023-03-30T22:11:11.784Z,100115.66
2023-03-30T22:13:38.198Z,100118.09
2023-03-30T22:16:06.582Z,100116.09
2023-03-30T22:18:33.796Z,100117.69
2023-03-30T22:21:02.914Z,100113.72
2023-03-30T22:23:30.098Z,100116.16
2023-03-30T22:25:56.717Z,100100.31
2023-03-30T22:28:23.939Z,100105.50
2023-03-30T22:30:51.296Z,100103.75
2023-03-30T22:33:18.141Z,100099.91
2023-03-30T22:35:46.746Z,100092.94
2023-03-30T22:38:14.006Z,100092.03
2023-03-30T22:40:42.027Z,100085.91
2023-03-30T22:43:12.700Z,100080.63
2023-03-30T22:45:40.495Z,100085.31
2023-03-30T22:48:07.433Z,100072.81
2023-03-30T22:50:34.985Z,100073.63
2023-03-30T22:53:01.678Z,100073.06
2023-03-30T22:55:28.345Z,100076.91
2023-03-30T22:57:56.676Z,100062.50
2023-03-30T23:00:23.663Z,100064.44
2023-03-30T23:02:50.551Z,100050.63
2023-03-30T23:05:21.122Z,100051.97
2023-03-30T23:07:49.035Z,100035.63
2023-03-30T23:10:19.104Z,100035.84
2023-03-30T23:12:46.547Z,100046.91
2023-03-30T23:15:14.501Z,100035.03
2023-03-30T23:17:41.337Z,100048.59
2023-03-30T23:20:10.370Z,100047.75
2023-03-30T23:22:38.139Z,100043.06
2023-03-30T23:25:06.361Z,100037.31
2023-03-30T23:27:33.173Z,100032.34
2023-03-30T23:29:59.594Z,100027.34
2023-03-30T23:32:26.184Z,100031.78
2023-03-30T23:34:52.905Z,100036.19
2023-03-30T23:37:19.627Z,100033.69
2023-03-30T23:39:46.103Z,100038.38
2023-03-30T23:42:12.525Z,100023.81
2023-03-30T23:44:39.089Z,100022.97
2023-03-30T23:47:05.871Z,100015.25
2023-03-30T23:49:32.368Z,100010.06
2023-03-30T23:51:58.827Z,99997.09
2023-03-30T23:54:25.299Z,100000.13
2023-03-30T23:56:57.636Z,99991.84
2023-03-30T23:59:24.998Z,99991.94
